Time;durP1;ratioP1;P1;durP2;ratioP2;P2;SDS_P1;SDS_P2;PMS_P1;PMS_P2;Temp;Humidity;BMP_temperature;BMP_pressure;BME280_temperature;BME280_humidity;BME280_pressure;Samples;Min_cycle;Max_cycle;Signal;HPM_P1;HPM_P2
2021/10/16 00:02:28;;;;;;;6.13;5.60;;;12.00;99.90;;;;;;10201676;29;21295;-80
2021/10/16 00:07:32;;;;;;;6.43;5.93;;;12.00;99.90;;;;;;10204344;29;20729;-80
2021/10/16 00:12:35;;;;;;;6.53;5.97;;;11.90;99.90;;;;;;10206399;29;20226;-80
2021/10/16 00:17:38;;;;;;;5.83;5.40;;;11.90;99.90;;;;;;10179387;29;20213;-80
2021/10/16 00:22:40;;;;;;;7.63;6.97;;;11.80;99.90;;;;;;10198491;29;20565;-80
2021/10/16 00:27:43;;;;;;;10.03;8.10;;;11.80;99.90;;;;;;10207765;29;20213;-80
2021/10/16 00:32:46;;;;;;;8.70;8.00;;;11.70;99.90;;;;;;10171200;29;20221;-80
2021/10/16 00:37:48;;;;;;;8.57;7.80;;;11.70;99.90;;;;;;10157284;29;20213;-80
2021/10/16 00:42:56;;;;;;;9.43;8.63;;;11.70;99.90;;;;;;10179595;29;20709;-80
2021/10/16 00:47:58;;;;;;;9.13;8.43;;;11.70;99.90;;;;;;10196773;29;20296;-80
2021/10/16 00:53:00;;;;;;;10.53;9.63;;;11.70;99.90;;;;;;10182429;29;20238;-80
2021/10/16 00:58:03;;;;;;;10.00;9.10;;;11.70;99.90;;;;;;10174417;29;20700;-79
2021/10/16 01:03:07;;;;;;;9.87;8.80;;;11.70;99.90;;;;;;10158714;29;20384;-79
2021/10/16 01:08:11;;;;;;;8.60;7.80;;;11.70;99.90;;;;;;10198372;29;20686;-79
2021/10/16 01:13:15;;;;;;;9.57;8.60;;;11.70;99.90;;;;;;10194361;29;20221;-80
2021/10/16 01:18:21;;;;;;;9.03;8.20;;;11.80;99.90;;;;;;10189344;29;20564;-80
2021/10/16 01:23:24;;;;;;;8.80;8.10;;;11.80;99.90;;;;;;10158805;29;20320;-80
2021/10/16 01:28:27;;;;;;;8.97;8.07;;;11.90;99.90;;;;;;10178718;29;20244;-79
2021/10/16 01:33:30;;;;;;;9.20;8.30;;;11.90;99.90;;;;;;10181016;29;20236;-80
2021/10/16 01:38:34;;;;;;;9.97;9.17;;;12.00;99.90;;;;;;10196532;29;20276;-79
2021/10/16 01:43:41;;;;;;;9.47;8.57;;;12.00;99.90;;;;;;10181691;29;20229;-80
2021/10/16 01:48:45;;;;;;;10.67;9.70;;;12.00;99.90;;;;;;10174309;29;20482;-80
2021/10/16 01:53:49;;;;;;;12.33;10.40;;;12.10;99.90;;;;;;10164764;29;20301;-80
2021/10/16 01:58:51;;;;;;;10.63;9.73;;;12.10;99.90;;;;;;10182833;29;20643;-80
2021/10/16 02:04:14;;;;;;;11.77;10.67;;;12.10;99.90;;;;;;10180572;29;20231;-80
2021/10/16 02:09:18;;;;;;;12.13;10.93;;;12.10;99.90;;;;;;10176124;29;20216;-80
2021/10/16 02:14:20;;;;;;;10.70;9.80;;;12.10;99.90;;;;;;10166597;29;20254;-80
2021/10/16 02:19:26;;;;;;;8.90;8.10;;;12.10;99.90;;;;;;10175748;29;20213;-80
2021/10/16 02:24:32;;;;;;;9.83;9.03;;;12.10;99.90;;;;;;10161983;29;20300;-80
2021/10/16 02:29:35;;;;;;;10.23;9.20;;;12.10;99.90;;;;;;10196698;29;21311;-80
2021/10/16 02:34:41;;;;;;;9.10;8.30;;;12.10;99.90;;;;;;10176755;29;20245;-80
2021/10/16 02:39:52;;;;;;;9.73;8.83;;;12.10;99.90;;;;;;10186593;29;20217;-80
2021/10/16 02:44:56;;;;;;;9.50;8.60;;;12.10;99.90;;;;;;10163901;29;20237;-80
2021/10/16 02:49:59;;;;;;;10.87;9.77;;;12.10;99.90;;;;;;10161073;29;20582;-80
2021/10/16 02:55:03;;;;;;;10.33;9.20;;;12.10;99.90;;;;;;10166574;29;20239;-80
2021/10/16 03:00:19;;;;;;;10.67;9.60;;;12.20;99.90;;;;;;10177445;29;20214;-80
2021/10/16 03:05:22;;;;;;;10.67;9.60;;;12.20;99.90;;;;;;10152430;29;20262;-80
2021/10/16 03:10:26;;;;;;;12.03;11.03;;;12.20;99.90;;;;;;10155734;29;20248;-80
2021/10/16 03:15:28;;;;;;;11.87;10.87;;;12.30;99.90;;;;;;10186660;29;20244;-80
2021/10/16 03:20:32;;;;;;;11.53;10.43;;;12.30;99.90;;;;;;10169946;29;20648;-80
2021/10/16 03:25:41;;;;;;;10.90;10.00;;;12.30;99.90;;;;;;10145985;29;20710;-80
2021/10/16 03:30:43;;;;;;;9.50;8.60;;;12.30;99.90;;;;;;10149118;29;20237;-80
2021/10/16 03:35:46;;;;;;;15.30;9.83;;;12.20;99.90;;;;;;10166448;29;20320;-80
2021/10/16 03:40:50;;;;;;;9.60;8.80;;;12.20;99.90;;;;;;10159816;29;20289;-80
2021/10/16 03:45:53;;;;;;;10.67;9.67;;;12.10;99.90;;;;;;10155013;29;20241;-80
2021/10/16 03:50:56;;;;;;;10.53;9.63;;;12.10;99.90;;;;;;10160000;29;20683;-80
2021/10/16 03:56:00;;;;;;;11.40;10.40;;;12.10;99.90;;;;;;10182160;29;20236;-80
2021/10/16 04:01:03;;;;;;;11.17;10.17;;;12.10;99.90;;;;;;10139820;29;20269;-80
2021/10/16 04:06:07;;;;;;;11.07;9.87;;;12.10;99.90;;;;;;10146371;29;20364;-80
2021/10/16 04:11:10;;;;;;;12.37;11.10;;;12.10;99.90;;;;;;10170870;29;20697;-80
2021/10/16 04:16:12;;;;;;;13.40;12.10;;;12.10;99.90;;;;;;10136915;29;20234;-80
2021/10/16 04:21:14;;;;;;;13.43;12.23;;;12.00;99.90;;;;;;10159041;29;20210;-79
2021/10/16 04:26:22;;;;;;;14.53;12.77;;;12.00;99.90;;;;;;10136925;29;20210;-80
2021/10/16 04:31:24;;;;;;;15.40;13.90;;;12.00;99.90;;;;;;10159192;29;20214;-80
2021/10/16 04:36:26;;;;;;;13.80;12.60;;;12.00;99.90;;;;;;10145542;29;20360;-80
2021/10/16 04:46:35;;;;;;;15.20;13.70;;;12.00;99.90;;;;;;10077683;29;20227;-85
2021/10/16 04:51:39;;;;;;;15.13;13.60;;;12.00;99.90;;;;;;10066447;29;20974;-83
2021/10/16 04:56:42;;;;;;;16.23;14.60;;;12.00;99.90;;;;;;10060189;29;20239;-85
2021/10/16 05:01:46;;;;;;;16.07;14.60;;;12.00;99.90;;;;;;10069586;29;20291;-84
2021/10/16 05:06:48;;;;;;;19.27;15.53;;;12.00;99.90;;;;;;10048052;29;20221;-85
2021/10/16 05:11:51;;;;;;;16.40;14.70;;;11.90;99.90;;;;;;10065378;29;20606;-85
2021/10/16 05:16:55;;;;;;;17.87;16.17;;;11.90;99.90;;;;;;10074862;29;20595;-85
2021/10/16 05:21:57;;;;;;;18.80;16.80;;;11.90;99.90;;;;;;10064665;29;20227;-85
2021/10/16 05:26:59;;;;;;;19.63;17.77;;;11.90;99.90;;;;;;10059759;29;20211;-85
2021/10/16 05:32:04;;;;;;;16.30;14.70;;;12.00;99.90;;;;;;10049115;29;20235;-85
2021/10/16 05:37:08;;;;;;;15.97;14.40;;;12.00;99.90;;;;;;10078781;29;20231;-84
2021/10/16 05:42:11;;;;;;;12.23;11.03;;;12.00;99.90;;;;;;10043890;29;20250;-85
2021/10/16 05:47:16;;;;;;;12.20;11.00;;;12.10;99.90;;;;;;10054699;29;20247;-85
2021/10/16 05:52:20;;;;;;;15.60;14.20;;;12.10;99.90;;;;;;10047896;29;20238;-84
2021/10/16 05:57:22;;;;;;;15.43;13.93;;;12.10;99.90;;;;;;10064118;29;20322;-84
2021/10/16 06:02:27;;;;;;;14.27;13.07;;;12.20;99.90;;;;;;10058644;29;20295;-84
2021/10/16 06:07:30;;;;;;;15.33;13.83;;;12.20;99.90;;;;;;10063905;29;20325;-84
2021/10/16 06:12:32;;;;;;;15.70;14.30;;;12.20;99.90;;;;;;10073049;29;20258;-84
2021/10/16 06:17:36;;;;;;;16.50;14.90;;;12.20;99.90;;;;;;10065920;29;20853;-84
2021/10/16 06:22:38;;;;;;;13.60;12.40;;;12.20;99.90;;;;;;10048014;29;20261;-84
2021/10/16 06:27:41;;;;;;;13.73;12.43;;;12.20;99.90;;;;;;10070672;29;20218;-84
2021/10/16 06:32:44;;;;;;;12.43;11.33;;;12.30;99.90;;;;;;10045370;29;20241;-84
2021/10/16 06:37:46;;;;;;;12.77;11.47;;;12.30;99.90;;;;;;10074325;29;20250;-84
2021/10/16 06:42:49;;;;;;;12.37;11.27;;;12.30;99.90;;;;;;10059286;29;20333;-84
2021/10/16 06:48:11;;;;;;;12.67;11.47;;;12.40;99.90;;;;;;10080728;29;20215;-84
2021/10/16 06:53:41;;;;;;;12.27;11.27;;;12.40;99.90;;;;;;10063421;29;20235;-85
2021/10/16 06:58:43;;;;;;;14.53;12.40;;;12.30;99.90;;;;;;10061403;29;20595;-84
2021/10/16 07:03:47;;;;;;;14.40;12.20;;;12.40;99.90;;;;;;10072817;29;20227;-84
2021/10/16 07:08:49;;;;;;;13.40;12.00;;;12.40;99.90;;;;;;10062554;29;20212;-84
2021/10/16 07:13:52;;;;;;;16.00;12.57;;;12.40;99.90;;;;;;10078631;29;20235;-84
2021/10/16 07:18:55;;;;;;;13.40;12.17;;;12.40;99.90;;;;;;10063844;29;20280;-84
2021/10/16 07:23:57;;;;;;;12.97;11.87;;;12.50;99.90;;;;;;10068382;29;20643;-85
2021/10/16 07:28:59;;;;;;;13.27;11.97;;;12.50;99.90;;;;;;10066853;29;20222;-85
2021/10/16 07:34:03;;;;;;;12.03;10.83;;;12.50;99.90;;;;;;10054250;29;20287;-85
2021/10/16 07:39:07;;;;;;;12.97;11.87;;;12.60;99.90;;;;;;10054502;29;20733;-85
2021/10/16 07:44:09;;;;;;;13.00;11.90;;;12.70;99.90;;;;;;10054835;29;20299;-84
2021/10/16 07:49:13;;;;;;;12.77;11.67;;;12.70;99.90;;;;;;10070068;29;20250;-85
2021/10/16 07:54:15;;;;;;;13.43;11.53;;;12.70;99.90;;;;;;10072548;29;20664;-85
2021/10/16 07:59:17;;;;;;;12.07;11.07;;;12.70;99.90;;;;;;10070337;29;20224;-85
2021/10/16 08:04:21;;;;;;;12.87;11.57;;;12.80;99.90;;;;;;10051857;29;20255;-85
2021/10/16 08:09:23;;;;;;;13.70;12.50;;;12.80;99.90;;;;;;10065172;29;20215;-85
2021/10/16 08:14:31;;;;;;;14.77;13.47;;;12.80;99.90;;;;;;10070816;29;20246;-85
2021/10/16 08:19:35;;;;;;;14.57;13.13;;;12.80;99.90;;;;;;10081160;29;20219;-85
2021/10/16 08:24:37;;;;;;;14.40;13.10;;;12.80;99.90;;;;;;10053556;29;20238;-84
2021/10/16 08:29:42;;;;;;;16.77;15.00;;;12.90;99.90;;;;;;10070954;29;20219;-84
2021/10/16 08:34:46;;;;;;;21.37;19.10;;;12.90;99.90;;;;;;10065449;29;20315;-85
2021/10/16 08:39:48;;;;;;;22.77;19.00;;;13.00;99.90;;;;;;10068033;29;20204;-85
2021/10/16 08:44:51;;;;;;;27.13;22.27;;;12.90;99.90;;;;;;10063540;29;20825;-83
2021/10/16 08:49:57;;;;;;;24.33;21.83;;;13.00;99.90;;;;;;10066946;29;20215;-83
2021/10/16 08:54:59;;;;;;;29.17;22.67;;;13.00;99.90;;;;;;10082210;29;20789;-85
2021/10/16 09:00:43;;;;;;;31.17;24.47;;;13.00;99.90;;;;;;10075436;29;20207;-85
2021/10/16 09:06:17;;;;;;;34.10;26.53;;;13.00;99.90;;;;;;10064939;29;20234;-85
2021/10/16 09:11:28;;;;;;;28.73;23.60;;;13.00;99.90;;;;;;10082322;29;20217;-84
2021/10/16 09:16:36;;;;;;;27.83;22.43;;;13.00;99.90;;;;;;10081919;29;20599;-85
2021/10/16 09:21:42;;;;;;;32.80;24.23;;;12.90;99.90;;;;;;10049796;29;20219;-85
2021/10/16 09:26:45;;;;;;;30.57;23.27;;;13.00;99.90;;;;;;10075957;29;20212;-85
2021/10/16 09:31:49;;;;;;;27.50;24.00;;;13.00;99.90;;;;;;10083090;29;20230;-84
2021/10/16 09:37:01;;;;;;;29.63;24.63;;;13.10;99.90;;;;;;10062352;29;20231;-85
2021/10/16 09:42:04;;;;;;;26.37;23.53;;;13.20;99.90;;;;;;10066254;29;20249;-85
2021/10/16 09:47:12;;;;;;;25.60;22.80;;;13.20;99.90;;;;;;10065930;29;20320;-84
2021/10/16 09:52:17;;;;;;;25.60;22.77;;;13.30;99.90;;;;;;10063704;29;20329;-84
2021/10/16 09:57:20;;;;;;;26.17;23.37;;;13.40;99.90;;;;;;10080542;29;20345;-85
2021/10/16 10:02:22;;;;;;;23.50;21.07;;;13.50;99.90;;;;;;10043701;29;20235;-82
2021/10/16 10:07:26;;;;;;;26.20;21.70;;;13.60;99.90;;;;;;10081499;29;20207;-85
2021/10/16 10:12:29;;;;;;;21.63;19.43;;;13.70;99.90;;;;;;10068182;29;20711;-84
2021/10/16 10:17:33;;;;;;;21.93;19.73;;;13.70;99.90;;;;;;10045308;29;21215;-84
2021/10/16 10:22:38;;;;;;;22.90;20.60;;;13.80;99.90;;;;;;10080652;29;20231;-84
2021/10/16 10:27:44;;;;;;;21.23;19.10;;;13.90;99.90;;;;;;10079986;29;20576;-84
2021/10/16 10:32:47;;;;;;;22.23;19.93;;;14.00;99.90;;;;;;10065216;29;20239;-82
2021/10/16 10:37:53;;;;;;;22.93;20.30;;;14.20;99.90;;;;;;10083465;29;20699;-83
2021/10/16 10:42:56;;;;;;;21.70;19.37;;;14.40;99.90;;;;;;10047755;29;20247;-85
2021/10/16 10:48:06;;;;;;;22.57;20.27;;;14.60;99.90;;;;;;10078778;29;20207;-83
2021/10/16 10:53:11;;;;;;;22.63;20.27;;;14.80;99.90;;;;;;10064713;29;20287;-82
2021/10/16 10:58:13;;;;;;;21.73;19.63;;;14.90;99.90;;;;;;10082319;29;20925;-83
2021/10/16 11:03:46;;;;;;;22.80;19.60;;;15.00;99.90;;;;;;10052845;29;20241;-83
2021/10/16 11:08:50;;;;;;;22.03;19.73;;;15.10;99.90;;;;;;10065441;29;20566;-83
2021/10/16 11:13:52;;;;;;;21.73;19.77;;;15.30;99.90;;;;;;10090165;29;20230;-83
2021/10/16 11:18:58;;;;;;;20.50;18.60;;;15.40;99.90;;;;;;10055031;29;20325;-83
2021/10/16 11:24:05;;;;;;;21.30;19.13;;;15.40;99.90;;;;;;10089724;29;20231;-84
2021/10/16 11:29:07;;;;;;;19.60;17.80;;;15.30;99.90;;;;;;10102152;29;20761;-83
2021/10/16 11:34:09;;;;;;;21.23;19.13;;;15.10;99.90;;;;;;10087037;29;20239;-85
2021/10/16 11:39:15;;;;;;;21.17;19.07;;;15.00;99.90;;;;;;10086893;29;20238;-85
2021/10/16 11:44:17;;;;;;;20.90;18.90;;;14.90;99.90;;;;;;10054898;29;20247;-85
2021/10/16 11:49:22;;;;;;;22.00;20.00;;;14.70;99.90;;;;;;10089439;29;20207;-85
2021/10/16 11:54:26;;;;;;;23.20;21.00;;;14.60;99.90;;;;;;10091182;29;20310;-85
2021/10/16 11:59:28;;;;;;;20.87;18.87;;;14.50;99.90;;;;;;10057492;29;20297;-85
2021/10/16 12:04:30;;;;;;;21.00;18.83;;;14.40;99.90;;;;;;10070615;29;20235;-85
2021/10/16 12:09:33;;;;;;;22.43;20.23;;;14.30;99.90;;;;;;10058213;29;20215;-84
2021/10/16 12:14:36;;;;;;;21.03;18.63;;;14.30;99.90;;;;;;10065974;29;20239;-85
2021/10/16 12:19:38;;;;;;;19.70;17.83;;;14.30;99.90;;;;;;10051830;29;20309;-84
2021/10/16 12:24:41;;;;;;;21.13;19.23;;;14.30;99.90;;;;;;10051691;29;20237;-85
2021/10/16 12:29:46;;;;;;;21.27;19.37;;;14.20;99.90;;;;;;10067700;29;20418;-84
2021/10/16 12:34:51;;;;;;;19.60;17.53;;;14.20;99.90;;;;;;10067899;29;20354;-84
2021/10/16 12:40:05;;;;;;;18.70;17.10;;;14.20;99.90;;;;;;10063769;29;20275;-85
2021/10/16 12:45:09;;;;;;;17.90;16.10;;;14.30;99.90;;;;;;10048687;29;20906;-85
2021/10/16 12:50:12;;;;;;;18.23;16.53;;;14.30;99.90;;;;;;10085852;29;20223;-84
2021/10/16 12:55:24;;;;;;;16.87;15.40;;;14.30;99.90;;;;;;10080278;29;20326;-84
2021/10/16 13:00:28;;;;;;;19.17;17.27;;;14.30;99.90;;;;;;10070321;29;20269;-84
2021/10/16 13:05:30;;;;;;;14.90;13.40;;;14.40;99.90;;;;;;10060978;29;20708;-84
2021/10/16 13:10:35;;;;;;;17.37;15.87;;;14.40;99.90;;;;;;10066637;29;20661;-84
2021/10/16 13:15:39;;;;;;;15.83;14.43;;;14.40;99.90;;;;;;10081969;29;20255;-85
2021/10/16 13:20:42;;;;;;;14.23;13.03;;;14.40;99.90;;;;;;10067438;29;20230;-85
2021/10/16 13:25:46;;;;;;;13.97;12.57;;;14.40;99.90;;;;;;10076877;29;20238;-83
2021/10/16 13:30:49;;;;;;;13.37;12.27;;;14.50;99.90;;;;;;10066574;29;20648;-85
2021/10/16 13:35:51;;;;;;;14.50;13.20;;;14.60;99.90;;;;;;10047712;29;20322;-85
2021/10/16 13:40:55;;;;;;;13.43;12.23;;;14.60;99.90;;;;;;10064161;29;20218;-84
2021/10/16 13:45:57;;;;;;;14.57;13.10;;;14.60;99.90;;;;;;10080769;29;20653;-84
2021/10/16 13:50:59;;;;;;;17.37;15.87;;;14.60;99.90;;;;;;10082268;29;20241;-84
2021/10/16 13:56:03;;;;;;;18.50;16.90;;;14.60;99.90;;;;;;10079945;29;20246;-84
2021/10/16 14:01:05;;;;;;;17.60;16.10;;;14.60;99.90;;;;;;10075492;29;21386;-83
2021/10/16 14:06:10;;;;;;;16.70;15.13;;;14.60;99.90;;;;;;10063049;29;20215;-83
2021/10/16 14:11:13;;;;;;;18.73;16.93;;;14.60;99.90;;;;;;10080121;29;20306;-84
2021/10/16 14:16:15;;;;;;;16.67;15.17;;;14.60;99.90;;;;;;10079355;29;20227;-84
2021/10/16 14:21:18;;;;;;;17.17;15.60;;;14.60;99.90;;;;;;10059977;29;20311;-84
2021/10/16 14:26:22;;;;;;;17.20;15.60;;;14.60;99.90;;;;;;10082007;29;20310;-84
2021/10/16 14:31:24;;;;;;;16.07;14.67;;;14.60;99.90;;;;;;10072717;29;20215;-85
2021/10/16 14:36:26;;;;;;;16.50;14.90;;;14.60;99.90;;;;;;10080232;29;20227;-85
2021/10/16 14:41:29;;;;;;;17.57;16.07;;;14.60;99.90;;;;;;10069990;29;20225;-84
2021/10/16 14:46:32;;;;;;;16.70;15.20;;;14.60;99.90;;;;;;10097219;29;20257;-85
2021/10/16 14:51:34;;;;;;;17.13;15.63;;;14.60;99.90;;;;;;10088333;29;20213;-85
2021/10/16 14:56:37;;;;;;;15.97;14.40;;;14.60;99.90;;;;;;10073864;29;20255;-85
2021/10/16 15:01:39;;;;;;;16.77;15.27;;;14.60;99.90;;;;;;10064231;29;21134;-84
2021/10/16 15:06:42;;;;;;;15.27;14.03;;;14.60;99.90;;;;;;10062159;29;20223;-84
2021/10/16 15:11:45;;;;;;;16.80;15.27;;;14.60;99.90;;;;;;10086575;29;20211;-85
2021/10/16 15:16:47;;;;;;;15.47;14.03;;;14.60;99.90;;;;;;10082117;29;20305;-84
2021/10/16 15:21:49;;;;;;;16.37;13.57;;;14.60;99.90;;;;;;10073588;29;20262;-83
2021/10/16 15:26:53;;;;;;;18.87;17.00;;;14.60;99.90;;;;;;10067884;29;20208;-85
2021/10/16 15:31:55;;;;;;;13.60;12.30;;;14.60;99.90;;;;;;10088941;29;20264;-85
2021/10/16 15:37:00;;;;;;;12.10;10.90;;;14.60;99.90;;;;;;10056006;29;20720;-85
2021/10/16 15:42:03;;;;;;;12.63;11.43;;;14.50;99.90;;;;;;10087138;29;20270;-84
2021/10/16 15:47:05;;;;;;;11.60;10.50;;;14.50;99.90;;;;;;10089681;29;20568;-84
2021/10/16 15:52:08;;;;;;;11.80;10.80;;;14.30;99.90;;;;;;10070241;29;20736;-84
2021/10/16 15:57:11;;;;;;;18.20;16.30;;;14.20;99.90;;;;;;10071628;29;20361;-85
2021/10/16 16:02:14;;;;;;;12.53;11.33;;;14.10;99.90;;;;;;10083702;29;20242;-84
2021/10/16 16:07:16;;;;;;;10.57;9.67;;;14.00;99.90;;;;;;10085762;29;20780;-84
2021/10/16 16:12:19;;;;;;;12.43;11.23;;;13.90;99.90;;;;;;10081019;29;20227;-85
2021/10/16 16:17:21;;;;;;;10.93;10.03;;;13.80;99.90;;;;;;10085478;29;20224;-84
2021/10/16 16:22:23;;;;;;;12.80;11.70;;;13.80;99.90;;;;;;10087321;29;20230;-85
2021/10/16 16:27:27;;;;;;;13.00;11.90;;;13.60;99.90;;;;;;10094717;29;20207;-85
2021/10/16 16:32:29;;;;;;;12.60;11.50;;;13.50;99.90;;;;;;10052161;29;20349;-84
2021/10/16 16:37:32;;;;;;;18.70;16.70;;;13.40;99.90;;;;;;10068574;29;20704;-85
2021/10/16 16:42:36;;;;;;;16.03;14.33;;;13.30;99.90;;;;;;10116293;23;20626;-83
2021/10/16 16:47:39;;;;;;;15.97;14.30;;;13.20;99.90;;;;;;10163423;29;20233;-83
2021/10/16 16:52:42;;;;;;;18.40;16.60;;;13.10;99.90;;;;;;10172477;29;20229;-82
2021/10/16 16:57:45;;;;;;;18.37;16.43;;;13.10;99.90;;;;;;10138931;29;20233;-83
2021/10/16 17:02:48;;;;;;;16.33;14.93;;;13.10;99.90;;;;;;10175409;29;20308;-83
2021/10/16 17:07:50;;;;;;;18.37;16.67;;;13.00;99.90;;;;;;10158418;29;20646;-82
2021/10/16 17:12:53;;;;;;;20.20;18.40;;;13.00;99.90;;;;;;10158232;29;20698;-83
2021/10/16 17:17:59;;;;;;;21.10;19.00;;;12.90;99.90;;;;;;10150732;29;21248;-83
2021/10/16 17:23:01;;;;;;;20.43;18.20;;;12.80;99.90;;;;;;10154414;29;20240;-83
2021/10/16 17:28:09;;;;;;;22.00;19.80;;;12.70;99.90;;;;;;10155896;29;20217;-82
2021/10/16 17:33:13;;;;;;;22.80;20.53;;;12.60;99.90;;;;;;10152670;29;20288;-82
2021/10/16 17:38:15;;;;;;;22.50;20.13;;;12.60;99.90;;;;;;10151388;29;20245;-82
2021/10/16 17:43:23;;;;;;;22.60;20.40;;;12.60;99.90;;;;;;10132837;29;20617;-82
2021/10/16 17:48:25;;;;;;;22.23;20.03;;;12.50;99.90;;;;;;10154273;29;20681;-82
2021/10/16 17:53:27;;;;;;;25.07;22.77;;;12.50;99.90;;;;;;10146297;29;20226;-82
2021/10/16 17:58:31;;;;;;;22.20;19.90;;;12.50;99.90;;;;;;10201555;29;20221;-83
2021/10/16 18:03:34;;;;;;;22.63;20.43;;;12.40;99.90;;;;;;10201697;29;20229;-82
2021/10/16 18:08:38;;;;;;;24.50;22.10;;;12.30;99.90;;;;;;10217332;29;20224;-82
2021/10/16 18:13:42;;;;;;;23.43;21.10;;;12.30;99.90;;;;;;10185021;29;20312;-82
2021/10/16 18:18:44;;;;;;;23.00;20.80;;;12.30;99.90;;;;;;10201828;29;20328;-82
2021/10/16 18:23:46;;;;;;;21.80;19.80;;;12.20;99.90;;;;;;10200691;29;20225;-82
2021/10/16 18:28:49;;;;;;;23.30;21.00;;;12.20;99.90;;;;;;10160517;29;20209;-83
2021/10/16 18:33:51;;;;;;;27.73;24.87;;;12.10;99.90;;;;;;10177521;29;20214;-83
2021/10/16 18:38:53;;;;;;;25.73;23.23;;;12.10;99.90;;;;;;10178535;29;20588;-83
2021/10/16 18:43:57;;;;;;;29.50;26.50;;;12.10;99.90;;;;;;10171063;29;20234;-82
2021/10/16 18:48:59;;;;;;;30.67;27.43;;;12.10;99.90;;;;;;10160982;29;20198;-82
2021/10/16 18:54:01;;;;;;;28.30;25.50;;;12.00;99.90;;;;;;10145390;29;20704;-81
2021/10/16 18:59:05;;;;;;;25.63;23.10;;;12.00;99.90;;;;;;10149118;29;20230;-81
2021/10/16 19:04:07;;;;;;;24.70;22.30;;;11.90;99.90;;;;;;10162618;29;20844;-81
2021/10/16 19:09:09;;;;;;;26.07;23.47;;;11.90;99.90;;;;;;10156250;29;20223;-82
2021/10/16 19:14:13;;;;;;;25.90;23.50;;;11.80;99.90;;;;;;10157881;29;20236;-81
2021/10/16 19:19:16;;;;;;;24.50;22.10;;;11.80;99.90;;;;;;10160834;29;20710;-82
2021/10/16 19:24:18;;;;;;;26.47;23.87;;;11.80;99.90;;;;;;10150140;29;20233;-82
2021/10/16 19:29:23;;;;;;;29.33;26.40;;;11.70;99.90;;;;;;10184693;29;20206;-82
2021/10/16 19:34:25;;;;;;;34.73;31.13;;;11.70;99.90;;;;;;10155409;29;20633;-82
2021/10/16 19:39:28;;;;;;;28.93;26.00;;;11.70;99.90;;;;;;10153664;29;20601;-82
2021/10/16 19:44:31;;;;;;;26.20;23.70;;;11.70;99.90;;;;;;10166901;29;20249;-82
2021/10/16 19:49:33;;;;;;;24.40;22.00;;;11.70;99.90;;;;;;10151304;29;20206;-82
2021/10/16 19:54:36;;;;;;;24.63;22.33;;;11.70;99.90;;;;;;10141393;29;20250;-82
2021/10/16 19:59:43;;;;;;;28.07;25.17;;;11.60;99.90;;;;;;10151207;29;20226;-81
2021/10/16 20:04:45;;;;;;;27.50;24.70;;;11.60;99.90;;;;;;10161030;29;20265;-81
2021/10/16 20:09:47;;;;;;;26.40;23.87;;;11.60;99.90;;;;;;10152774;29;20214;-82
2021/10/16 20:14:51;;;;;;;30.10;27.00;;;11.60;99.90;;;;;;10152149;29;20257;-82
2021/10/16 20:19:53;;;;;;;28.57;25.53;;;11.50;99.90;;;;;;10176919;29;20596;-81
2021/10/16 20:24:56;;;;;;;26.90;24.50;;;11.50;99.90;;;;;;10173830;29;20293;-81
2021/10/16 20:30:01;;;;;;;25.70;23.13;;;11.50;99.90;;;;;;10164232;29;20202;-82
2021/10/16 20:35:05;;;;;;;27.40;24.67;;;11.40;99.90;;;;;;10164974;29;20285;-82
2021/10/16 20:40:09;;;;;;;25.50;23.10;;;11.40;99.90;;;;;;10168827;29;20337;-82
2021/10/16 20:45:12;;;;;;;25.67;23.27;;;11.40;99.90;;;;;;10155559;29;20312;-82
2021/10/16 20:50:15;;;;;;;26.20;23.50;;;11.40;99.90;;;;;;10167805;29;20687;-82
2021/10/16 20:55:17;;;;;;;26.27;23.77;;;11.30;99.90;;;;;;10186346;29;20218;-82
2021/10/16 21:00:20;;;;;;;27.93;25.17;;;11.30;99.90;;;;;;10175119;29;20229;-83
2021/10/16 21:05:23;;;;;;;29.03;26.13;;;11.30;99.90;;;;;;10171383;29;20225;-82
2021/10/16 21:10:25;;;;;;;26.97;24.27;;;11.20;99.90;;;;;;10163166;29;20590;-82
2021/10/16 21:15:28;;;;;;;28.87;26.03;;;11.30;99.90;;;;;;10162374;29;20672;-82
2021/10/16 21:20:30;;;;;;;27.10;24.47;;;11.30;99.90;;;;;;10162746;29;20226;-83
2021/10/16 21:25:33;;;;;;;29.57;26.67;;;11.20;99.90;;;;;;10178075;29;20687;-82
2021/10/16 21:31:14;;;;;;;26.23;23.63;;;11.20;99.90;;;;;;10164700;29;20252;-82
2021/10/16 21:36:50;;;;;;;26.07;23.57;;;11.20;99.90;;;;;;10091552;29;20281;-82
2021/10/16 21:41:53;;;;;;;26.93;24.40;;;11.20;99.90;;;;;;10179283;29;20208;-83
2021/10/16 21:46:56;;;;;;;27.30;24.47;;;11.10;99.90;;;;;;10163519;29;20210;-82
2021/10/16 21:52:00;;;;;;;27.33;24.67;;;11.10;99.90;;;;;;10179994;29;20238;-82
2021/10/16 21:57:03;;;;;;;28.10;25.30;;;11.00;99.90;;;;;;10162985;29;20233;-82
2021/10/16 22:02:05;;;;;;;28.43;25.57;;;11.00;99.90;;;;;;10178526;29;20205;-82
2021/10/16 22:07:09;;;;;;;26.70;24.10;;;11.00;99.90;;;;;;10162832;29;20202;-82
2021/10/16 22:12:11;;;;;;;29.30;26.40;;;11.00;99.90;;;;;;10179319;29;20214;-82
2021/10/16 22:17:13;;;;;;;28.47;25.63;;;11.00;99.90;;;;;;10162782;29;20246;-82
2021/10/16 22:22:17;;;;;;;27.10;24.60;;;11.00;99.90;;;;;;10162831;29;20922;-82
2021/10/16 22:27:19;;;;;;;29.00;26.10;;;11.00;99.90;;;;;;10179319;29;20198;-82
2021/10/16 22:32:21;;;;;;;29.23;26.40;;;11.00;99.90;;;;;;10179803;29;20325;-82
2021/10/16 22:37:24;;;;;;;26.80;24.10;;;10.90;99.90;;;;;;10179791;29;20218;-82
2021/10/16 22:49:05;;;;;;;26.97;24.20;;;10.80;99.90;;;;;;10184478;29;20193;-83
2021/10/16 22:54:08;;;;;;;28.53;25.90;;;10.80;99.90;;;;;;10196609;29;20573;-83
2021/10/16 22:59:11;;;;;;;29.30;26.30;;;10.80;99.90;;;;;;10156424;29;20285;-83
2021/10/16 23:04:13;;;;;;;27.50;24.70;;;10.70;99.90;;;;;;10156928;29;20232;-83
2021/10/16 23:09:16;;;;;;;27.83;25.23;;;10.80;99.90;;;;;;10183502;29;20678;-83
2021/10/16 23:14:18;;;;;;;27.40;24.70;;;10.70;99.90;;;;;;10170923;29;20281;-83
2021/10/16 23:19:20;;;;;;;27.60;24.90;;;10.70;99.90;;;;;;10175690;29;20282;-84
2021/10/16 23:24:24;;;;;;;27.23;24.53;;;10.70;99.90;;;;;;10164425;29;20218;-83
2021/10/16 23:29:26;;;;;;;27.30;24.60;;;10.70;99.90;;;;;;10163829;29;20214;-84
2021/10/16 23:34:28;;;;;;;27.10;24.50;;;10.60;99.90;;;;;;10196139;29;20666;-84
2021/10/16 23:39:32;;;;;;;27.07;23.80;;;10.60;99.90;;;;;;10163205;29;20694;-83
2021/10/16 23:44:34;;;;;;;25.80;23.40;;;10.60;99.90;;;;;;10162153;29;20233;-84
2021/10/16 23:49:37;;;;;;;26.97;24.47;;;10.60;99.90;;;;;;10158967;29;20194;-83
2021/10/16 23:54:40;;;;;;;23.93;21.47;;;10.60;99.90;;;;;;10157981;29;20774;-83
2021/10/16 23:59:43;;;;;;;25.40;22.97;;;10.60;99.90;;;;;;10157919;29;20721;-83
